LTCW Airport Information

Runway Information
Airport Frequencies
Airport Navaids
Airport Weather Information & NOTAM
ADDS - METARS form results

(1917 UTC 18 July 2019)
Data provider http://aviationweather.gov/metar/data/
 
METAR text: LTCW 181850Z 13005KT CAVOK 17/04 Q1017
Conditions at: LTCW (YUKSEKOVA , TR) observed 1850 UTC 18 July 2019
Temperature: 17.0°C (63°F)
Dewpoint: 4.0°C (39°F) [RH = 42%]
Pressure (altimeter): 30.03 inches Hg (1017.0 mb)
Winds: from the SE (130 degrees) at 6 MPH (5 knots; 2.6 m/s)
Visibility: 6 or more miles (10+ km)
Ceiling: ceiling and visibility are OK
Clouds: unknown
Weather: no significant weather observed at this time

Forecast for: LTCW (YUKSEKOVA , TR)
Text: TAF LTCW 181640Z 1818/1903 21009KT CAVOK
Forecast period: 1800 UTC 18 July 2019 to 0300 UTC 19 July 2019
Forecast type: FROM: standard forecast or significant change
Winds: from the SSW (210 degrees) at 10 MPH (9 knots; 4.6 m/s)
Visibility: 6 or more miles 10+ km)
Ceiling: unknown
Clouds: missing
Weather: NSW  (no significant weather)